This is the latest recevied weather packets stored in our database for station/object SP3WRO-2. If no packets are shown the sender has not sent any weather packets the latest 10 day(s).
| Time | Temp. | Humidity | Pressure | Rain* | Wind** | Luminosity | Snow |
|---|---|---|---|---|---|---|---|
| 1787717427 | 11.67° C | 96% | 1019.3 hPa | - | - | 11 W/m² | - |
| 1787716526 | 11.67° C | 96% | 1019.3 hPa | - | - | 4 W/m² | - |
| 1787715624 | 11.67° C | 94% | 1019.2 hPa | - | - | 1 W/m² | - |
| 1787714723 | 11.67° C | 93% | 1019.2 hPa | - | - | - | - |
| 1787713822 | 11.67° C | 93% | 1019.1 hPa | - | - | - | - |
| 1787712922 | 11.67° C | 92% | 1019.2 hPa | - | - | - | - |
| 1787712021 | 12.22° C | 92% | 1019.1 hPa | - | - | - | - |
| 1787711120 | 12.22° C | 92% | 1019.2 hPa | - | - | - | - |
| 1787710219 | 12.22° C | 91% | 1019.1 hPa | - | - | - | - |
| 1787709318 | 12.22° C | 90% | 1019 hPa | - | - | - | - |
| 1787708417 | 12.22° C | 91% | 1018.9 hPa | - | - | - | - |
| 1787707516 | 12.78° C | 89% | 1018.8 hPa | - | - | - | - |
| 1787706615 | 12.78° C | 89% | 1018.7 hPa | - | - | - | - |
| 1787705714 | 12.22° C | 91% | 1018.6 hPa | - | - | - | - |
| 1787704813 | 12.22° C | 89% | 1018.5 hPa | - | - | - | - |
| 1787703912 | 12.78° C | 87% | 1018.4 hPa | - | - | - | - |
| 1787703011 | 12.78° C | 86% | 1018.4 hPa | - | - | - | - |
| 1787702111 | 12.78° C | 86% | 1018.4 hPa | - | - | - | - |
| 1787701209 | 12.78° C | 88% | 1018.3 hPa | - | - | - | - |
| 1787700308 | 12.22° C | 88% | 1018.4 hPa | - | - | - | - |
| 1787699407 | 12.22° C | 88% | 1018.3 hPa | - | - | - | - |
| 1787698503 | 11.67° C | 90% | 1018.2 hPa | - | - | - | - |
| 1787697602 | 11.11° C | 93% | 1018.2 hPa | - | - | - | - |
| 1787696701 | 11.11° C | 94% | 1018.2 hPa | - | - | - | - |
| 1787695801 | 11.11° C | 94% | 1018 hPa | - | - | - | - |
* Rain since midnight (hover to see other rain measurements)
** Current wind speed in m/s (hover to see current wind gust speed)